-> Other stations

1455

Speed(max): 1.6(2.2)knots
Direction:304° ( NW)
Temperature: 21.8°C
Arrived: 2026-09-02 02:57:13 CEST

Past data:
hh:mmknots
Dir (°)
°C
02:55 1.6 2.2 NW(304) 21.7
02:53 1.6 2.7 NW(304) 21.7
02:51 1.6 2.2 WNW(303) 21.7
02:49 1.6 2.2 NW(304) 21.6
02:47 1.6 2.2 NW(304) 21.6
02:45 1.6 2.2 NW(304) 21.6
02:43 2.2 2.7 NW(304) 21.7
02:41 1.6 2.2 NW(304) 21.7
02:39 1.1 2.2 WNW(303) 21.6
02:37 1.1 1.6 NW(304) 21.6
02:35 1.1 1.6 WNW(303) 21.6
02:33 0.5 1.6 WNW(303) 21.6
02:31 0 1.1 NW(304) 21.6
02:29 0 1.1 NW(304) 21.6
15 min. averages:
hh:mmknots
Dir (°)
°C
02:45 1.1 2.7 NW(304) 21.6
02:30 0 1.6 NW(304) 21.7
02:15 1.6 2.7 NW(304) 22.2
02:00 1.6 2.7 NW(304) 22.3
01:45 1.6 2.7 NW(304) 22.2
01:30 1.1 2.2 NW(304) 22.2
01:15 0.5 1.6 NW(304) 22.3
01:00 1.6 2.2 NW(304) 22.3
00:45 1.1 2.2 NW(304) 22.3
00:30 1.1 2.7 NW(304) 22.5
00:15 0 0 WNW(303) 21.9
00:00 1.1 2.2 NW(304) 22.2
23:45 0.5 2.2 NW(304) 22.3
23:30 1.1 2.2 NW(304) 22.4
23:15 1.1 1.6 NW(304) 22.3
Stations at HR:
1455
-> Other regions

Desktop view
Data provided by Holfuy.
© Holfuy Weather 2026